Observations for VILLAFRANCA CV MIL, Italy (LIPX)

LIPX 180720Z 14003KT 070V230 CAVOK 26/16 Q1016  
LIPX 180650Z VRB01KT CAVOK 26/16 Q1016  
LIPX 180620Z VRB02KT CAVOK 24/16 Q1016  
LIPX 180550Z 22003KT CAVOK 23/17 Q1016  
LIPX 180520Z 26003KT CAVOK 22/17 Q1015  
LIPX 180450Z VRB02KT CAVOK 21/16 Q1015  
LIPX 180420Z VRB01KT CAVOK 19/16 Q1015  
LIPX 180350Z 30004KT CAVOK 19/15 Q1015  
LIPX 180320Z 30004KT CAVOK 19/15 Q1015  
LIPX 180250Z 33003KT 300V360 CAVOK 19/15 Q1015  
LIPX 180220Z 31002KT CAVOK 19/15 Q1015  
LIPX 180150Z VRB01KT CAVOK 21/15 Q1015  
LIPX 180120Z 30003KT CAVOK 20/15 Q1015  
LIPX 180050Z VRB02KT CAVOK 21/15 Q1015  
LIPX 180020Z 06004KT CAVOK 22/15 Q1015  
LIPX 172350Z 07005KT CAVOK 23/15 Q1016  
LIPX 172320Z 05004KT CAVOK 23/15 Q1016  
LIPX 172250Z 07004KT 040V100 CAVOK 23/15 Q1016  
LIPX 172220Z 08005KT CAVOK 23/15 Q1016  
LIPX 172150Z 04005KT CAVOK 24/16 Q1015  
LIPX 172120Z 02004KT CAVOK 23/15 Q1015  
LIPX 172050Z 05002KT CAVOK 23/15 Q1015  
LIPX 172020Z 07003KT CAVOK 25/15 Q1015  
LIPX 171950Z 08003KT CAVOK 25/16 Q1014  
LIPX 171920Z 08004KT CAVOK 26/16 Q1014  
LIPX 171850Z 08004KT CAVOK 27/16 Q1014  
LIPX 171820Z 11005KT CAVOK 28/16 Q1014  
LIPX 171750Z 12005KT 9999 FEW050 28/16 Q1014
LIPX 171720Z 11007KT 070V150 9999 SCT070 30/16 Q1014
LIPX 171650Z 10005KT 060V130 9999 SCT060 30/14 Q1014
LIPX 171620Z 08006KT 030V140 9999 FEW060 30/15 Q1014
LIPX 171550Z VRB04KT 9999 FEW070 31/15 Q1014
LIPX 171520Z 08005KT 020V130 9999 FEW070 30/15 Q1014
LIPX 171450Z 08005KT 050V130 9999 FEW070 30/15 Q1014
LIPX 171420Z 10007KT 060V150 9999 FEW060 30/15 Q1014
LIPX 171350Z 10007KT 050V140 9999 FEW060 30/15 Q1015
LIPX 171320Z 08006KT 040V120 9999 FEW060 30/14 Q1015
LIPX 171250Z 09009KT 030V140 9999 FEW070 29/15 Q1015
LIPX 171220Z 09009KT 040V140 9999 FEW070 30/15 Q1015
LIPX 171150Z 07008KT 030V130 9999 FEW060 30/15 Q1015
LIPX 171120Z 08008KT 030V120 CAVOK 29/15 Q1016  
LIPX 171050Z 06009KT 030V100 CAVOK 29/15 Q1016  
LIPX 171020Z 05011KT 9999 FEW060 29/13 Q1016
LIPX 170950Z 07010KT 020V110 9999 FEW065 28/14 Q1016
LIPX 170920Z 08012KT 050V110 9999 FEW060 28/14 Q1016
LIPX 170850Z 06014KT 030V100 9999 FEW060 27/14 Q1016
LIPX 170820Z 08013KT 050V110 9999 FEW060 27/14 Q1016
LIPX 170750Z 07011KT 040V100 9999 FEW060 27/13 Q1016
LIPX 170720Z 07010KT 040V110 9999 SCT050 27/13 Q1016
LIPX 170650Z 05011KT 030V090 9999 SCT050 26/13 Q1016